createdAt,value
2023-04-20T00:00:25.421Z,4.70
2023-04-20T00:02:52.145Z,4.23
2023-04-20T00:05:18.878Z,3.77
2023-04-20T00:07:45.346Z,3.87
2023-04-20T00:10:11.868Z,4.30
2023-04-20T00:12:38.428Z,3.60
2023-04-20T00:15:05.411Z,3.63
2023-04-20T00:17:32.120Z,4.10
2023-04-20T00:19:58.596Z,3.47
2023-04-20T00:22:26.249Z,3.77
2023-04-20T00:24:52.671Z,3.90
2023-04-20T00:27:19.126Z,3.83
2023-04-20T00:29:45.536Z,4.40
2023-04-20T00:32:12.036Z,4.00
2023-04-20T00:34:39.247Z,3.97
2023-04-20T00:37:06.215Z,4.13
2023-04-20T00:39:32.715Z,3.87
2023-04-20T00:42:06.784Z,4.03
2023-04-20T00:44:33.446Z,3.43
2023-04-20T00:47:00.495Z,3.67
2023-04-20T00:49:30.010Z,4.00
2023-04-20T00:52:00.990Z,3.70
2023-04-20T00:54:29.060Z,3.40
2023-04-20T00:56:57.905Z,3.20
2023-04-20T00:59:24.384Z,3.77
2023-04-20T01:01:51.170Z,3.53
2023-04-20T01:04:18.769Z,3.13
2023-04-20T01:06:45.426Z,3.60
2023-04-20T01:09:12.521Z,4.60
2023-04-20T01:11:39.385Z,3.40
2023-04-20T01:14:06.477Z,3.57
2023-04-20T01:16:34.921Z,3.87
2023-04-20T01:19:01.559Z,3.93
2023-04-20T01:21:28.276Z,3.37
2023-04-20T01:23:54.750Z,4.00
2023-04-20T01:26:25.969Z,3.50
2023-04-20T01:28:52.835Z,3.70
2023-04-20T01:31:19.648Z,3.70
2023-04-20T01:33:46.466Z,3.80
2023-04-20T01:36:13.476Z,3.93
2023-04-20T01:38:40.168Z,3.20
2023-04-20T01:41:09.061Z,3.40
2023-04-20T01:43:37.212Z,3.40
2023-04-20T01:46:04.024Z,3.50
2023-04-20T01:48:30.480Z,4.57
2023-04-20T01:50:56.930Z,3.57
2023-04-20T01:53:23.526Z,3.80
2023-04-20T01:55:50.546Z,4.23
2023-04-20T01:58:17.257Z,3.83
2023-04-20T02:00:44.266Z,3.53
2023-04-20T02:03:11.235Z,4.33
2023-04-20T02:05:37.784Z,3.30
2023-04-20T02:08:04.938Z,2.90
2023-04-20T02:10:31.423Z,3.63
2023-04-20T02:12:57.880Z,4.10
2023-04-20T02:15:24.338Z,3.43
2023-04-20T02:17:52.181Z,4.10
2023-04-20T02:20:19.975Z,3.60
2023-04-20T02:22:46.517Z,3.73
2023-04-20T02:25:13.761Z,3.20
2023-04-20T02:27:40.292Z,3.60
2023-04-20T02:30:08.264Z,3.73
2023-04-20T02:32:35.144Z,3.70
2023-04-20T02:35:01.822Z,3.10
2023-04-20T02:37:28.378Z,3.47
2023-04-20T02:39:54.811Z,3.50
2023-04-20T02:42:21.305Z,4.00
2023-04-20T02:44:47.770Z,3.80
2023-04-20T02:47:14.269Z,4.10
2023-04-20T02:49:40.960Z,3.20
2023-04-20T02:52:07.430Z,4.13
2023-04-20T02:54:34.475Z,3.77
2023-04-20T02:57:01.565Z,3.60
2023-04-20T02:59:28.118Z,3.30
2023-04-20T03:01:54.623Z,3.20
2023-04-20T03:04:21.986Z,3.80
2023-04-20T03:06:50.375Z,3.00
2023-04-20T03:09:17.275Z,3.67
2023-04-20T03:11:45.635Z,3.53
2023-04-20T03:14:12.096Z,3.73
2023-04-20T03:16:38.655Z,3.73
2023-04-20T03:19:05.219Z,3.73
2023-04-20T03:21:33.020Z,3.90
2023-04-20T03:24:02.773Z,3.50
2023-04-20T03:26:29.346Z,3.70
2023-04-20T03:28:55.942Z,3.70
2023-04-20T03:31:22.498Z,3.07
2023-04-20T03:33:48.965Z,3.60
2023-04-20T03:36:15.433Z,3.53
2023-04-20T03:38:41.849Z,3.23
2023-04-20T03:41:08.359Z,3.90
2023-04-20T03:43:35.697Z,3.70
2023-04-20T03:46:02.181Z,3.90
2023-04-20T03:48:28.689Z,3.50
2023-04-20T03:50:55.220Z,3.70
2023-04-20T03:53:21.810Z,3.60
2023-04-20T03:55:48.236Z,3.63
2023-04-20T03:58:15.004Z,3.30
2023-04-20T04:00:41.429Z,3.73
2023-04-20T04:03:07.987Z,3.40
2023-04-20T04:05:34.764Z,4.00
2023-04-20T04:08:01.365Z,3.80
2023-04-20T04:10:27.894Z,4.00
2023-04-20T04:12:54.393Z,4.40
2023-04-20T04:15:20.908Z,3.90
2023-04-20T04:17:48.401Z,4.27
2023-04-20T04:20:15.072Z,4.43
2023-04-20T04:22:42.155Z,3.97
2023-04-20T04:25:09.087Z,4.10
2023-04-20T04:27:35.492Z,3.90
2023-04-20T04:30:02.675Z,4.03
2023-04-20T04:32:29.091Z,3.80
2023-04-20T04:34:55.640Z,4.00
2023-04-20T04:37:22.522Z,4.13
2023-04-20T04:39:51.148Z,4.27
2023-04-20T04:42:17.647Z,5.17
2023-04-20T04:44:45.028Z,5.40
2023-04-20T04:47:14.545Z,4.17
2023-04-20T04:49:41.034Z,4.37
2023-04-20T04:52:08.756Z,4.73
2023-04-20T04:54:35.298Z,4.83
2023-04-20T04:57:02.881Z,4.90
2023-04-20T04:59:29.380Z,5.03
2023-04-20T05:01:55.938Z,5.20
2023-04-20T05:04:22.601Z,4.90
2023-04-20T05:06:49.197Z,4.43
2023-04-20T05:09:16.207Z,5.80
2023-04-20T05:11:42.903Z,4.87
2023-04-20T05:14:09.481Z,5.70
2023-04-20T05:16:36.019Z,5.17
2023-04-20T05:19:02.479Z,5.40
2023-04-20T05:21:28.997Z,7.57
2023-04-20T05:23:55.504Z,5.90
2023-04-20T05:26:21.989Z,4.90
2023-04-20T05:28:48.432Z,5.40
2023-04-20T05:31:14.906Z,5.87
2023-04-20T05:33:41.394Z,5.30
2023-04-20T05:36:11.668Z,5.80
2023-04-20T05:38:39.155Z,5.37
2023-04-20T05:41:05.749Z,5.63
2023-04-20T05:43:32.150Z,5.27
2023-04-20T05:45:58.764Z,5.50
2023-04-20T05:48:29.561Z,6.53
2023-04-20T05:50:56.555Z,5.23
2023-04-20T05:53:23.037Z,5.53
2023-04-20T05:55:49.516Z,5.60
2023-04-20T05:58:17.024Z,6.70
2023-04-20T06:00:44.330Z,7.70
2023-04-20T06:03:10.955Z,14.13
2023-04-20T06:05:37.637Z,6.00
2023-04-20T06:08:04.322Z,5.40
2023-04-20T06:10:32.443Z,5.10
2023-04-20T06:12:58.998Z,5.33
2023-04-20T06:15:25.563Z,5.60
2023-04-20T06:17:52.023Z,4.70
2023-04-20T06:20:19.712Z,4.90
2023-04-20T06:22:46.765Z,4.67
2023-04-20T06:25:13.958Z,5.20
2023-04-20T06:27:40.673Z,5.03
2023-04-20T06:30:07.925Z,4.67
2023-04-20T06:32:34.406Z,5.60
2023-04-20T06:35:00.950Z,4.73
2023-04-20T06:37:28.039Z,4.57
2023-04-20T06:39:57.462Z,4.47
2023-04-20T06:42:23.955Z,4.57
2023-04-20T06:44:50.923Z,5.00
2023-04-20T06:47:17.465Z,4.77
2023-04-20T06:49:43.980Z,4.33
2023-04-20T06:52:10.497Z,4.70
2023-04-20T06:54:36.962Z,3.90
2023-04-20T06:57:03.392Z,4.00
2023-04-20T06:59:29.949Z,4.33
2023-04-20T07:01:56.433Z,4.17
2023-04-20T07:04:22.998Z,3.47
2023-04-20T07:06:51.684Z,4.00
2023-04-20T07:09:19.881Z,4.10
2023-04-20T07:11:46.486Z,4.30
2023-04-20T07:14:12.893Z,4.80
2023-04-20T07:16:39.363Z,4.40
2023-04-20T07:19:05.950Z,3.70
2023-04-20T07:21:32.347Z,4.10
2023-04-20T07:23:59.134Z,4.90
2023-04-20T07:26:25.836Z,4.60
2023-04-20T07:28:52.549Z,4.30
2023-04-20T07:31:19.124Z,3.90
2023-04-20T07:33:45.654Z,4.17
2023-04-20T07:36:12.137Z,4.30
2023-04-20T07:38:38.697Z,5.17
2023-04-20T07:41:12.973Z,4.60
2023-04-20T07:43:39.478Z,4.53
2023-04-20T07:46:06.106Z,4.60
2023-04-20T07:48:34.320Z,3.90
2023-04-20T07:51:01.149Z,4.60
2023-04-20T07:53:29.138Z,4.50
2023-04-20T07:55:55.700Z,4.10
2023-04-20T07:58:22.167Z,4.20
2023-04-20T08:00:48.923Z,4.33
2023-04-20T08:03:15.771Z,4.00
2023-04-20T08:05:42.556Z,4.13
2023-04-20T08:08:09.058Z,4.23
2023-04-20T08:10:36.482Z,4.30
2023-04-20T08:13:02.971Z,4.20
2023-04-20T08:15:29.561Z,5.10
2023-04-20T08:17:56.894Z,4.17
2023-04-20T08:20:23.460Z,4.60
2023-04-20T08:22:50.954Z,3.97
2023-04-20T08:25:17.543Z,4.70
2023-04-20T08:27:44.252Z,4.37
2023-04-20T08:30:11.402Z,4.87
2023-04-20T08:32:37.946Z,4.60
2023-04-20T08:35:05.296Z,4.30
2023-04-20T08:37:33.015Z,5.80
2023-04-20T08:39:59.731Z,4.73
2023-04-20T08:42:26.255Z,5.37
2023-04-20T08:44:52.960Z,5.30
2023-04-20T08:47:20.630Z,5.73
2023-04-20T08:49:52.205Z,6.27
2023-04-20T08:52:18.786Z,6.17
2023-04-20T08:54:56.028Z,6.20
2023-04-20T08:57:25.075Z,7.30
2023-04-20T08:59:51.870Z,6.60
2023-04-20T09:02:18.432Z,6.83
2023-04-20T09:04:48.979Z,8.00
2023-04-20T09:07:20.372Z,7.93
2023-04-20T09:10:00.638Z,5.10
2023-04-20T09:12:28.197Z,5.13
2023-04-20T09:14:55.870Z,4.33
2023-04-20T09:17:37.198Z,4.50
2023-04-20T09:20:08.451Z,4.80
2023-04-20T09:22:36.698Z,5.70
2023-04-20T09:25:16.320Z,5.30
2023-04-20T09:27:42.847Z,5.90
2023-04-20T09:30:09.981Z,5.83
2023-04-20T09:32:36.502Z,6.40
2023-04-20T09:35:03.053Z,6.23
2023-04-20T09:37:29.520Z,6.67
2023-04-20T09:40:00.189Z,5.80
2023-04-20T09:42:28.372Z,5.13
2023-04-20T09:44:55.848Z,5.13
2023-04-20T09:47:22.519Z,5.07
2023-04-20T09:49:50.143Z,4.70
2023-04-20T09:52:21.007Z,4.73
2023-04-20T09:54:47.644Z,4.67
2023-04-20T09:57:14.749Z,3.90
2023-04-20T09:59:43.790Z,3.60
2023-04-20T10:02:12.551Z,4.30
2023-04-20T10:05:01.356Z,4.83
2023-04-20T10:07:29.513Z,4.17
2023-04-20T10:10:07.793Z,3.50
2023-04-20T10:12:36.988Z,3.90
2023-04-20T10:15:04.337Z,4.07
2023-04-20T10:17:34.256Z,4.87
2023-04-20T10:20:00.827Z,3.90
2023-04-20T10:22:33.532Z,4.23
2023-04-20T10:25:01.266Z,3.27
2023-04-20T10:27:28.134Z,3.83
2023-04-20T10:29:54.625Z,3.20
2023-04-20T10:32:30.340Z,2.93
2023-04-20T10:35:08.705Z,2.83
2023-04-20T10:37:36.033Z,3.93
2023-04-20T10:40:07.519Z,3.80
2023-04-20T10:42:42.534Z,3.80
2023-04-20T10:45:10.820Z,4.13
2023-04-20T10:47:40.496Z,3.77
2023-04-20T10:50:12.838Z,4.13
2023-04-20T10:52:41.123Z,3.80
2023-04-20T10:55:19.116Z,3.60
2023-04-20T10:57:45.818Z,3.93
2023-04-20T11:00:20.618Z,4.07
2023-04-20T11:02:57.316Z,3.40
2023-04-20T11:05:26.358Z,3.07
2023-04-20T11:07:57.676Z,3.70
2023-04-20T11:10:44.359Z,2.80
2023-04-20T11:13:22.359Z,2.93
2023-04-20T11:15:48.911Z,2.67
2023-04-20T11:18:15.702Z,2.83
2023-04-20T11:20:53.169Z,2.73
2023-04-20T11:23:25.307Z,2.63
2023-04-20T11:25:56.699Z,2.90
2023-04-20T11:28:23.368Z,2.70
2023-04-20T11:30:50.884Z,2.70
2023-04-20T11:33:35.627Z,2.90
2023-04-20T11:36:02.248Z,2.50
2023-04-20T11:38:34.049Z,2.50
2023-04-20T11:41:04.659Z,2.77
2023-04-20T11:43:32.151Z,2.80
2023-04-20T11:45:59.981Z,2.30
2023-04-20T11:48:27.550Z,2.23
2023-04-20T11:50:54.032Z,2.37
2023-04-20T11:53:21.077Z,2.30
2023-04-20T11:55:47.661Z,2.40
2023-04-20T11:58:14.140Z,2.37
2023-04-20T12:00:40.705Z,2.40
2023-04-20T12:03:07.369Z,1.90
2023-04-20T12:05:34.093Z,2.30
2023-04-20T12:08:00.595Z,2.70
2023-04-20T12:10:27.064Z,2.30
2023-04-20T12:12:53.730Z,2.33
2023-04-20T12:15:20.321Z,2.30
2023-04-20T12:17:47.194Z,2.07
2023-04-20T12:20:14.422Z,2.63
2023-04-20T12:22:41.023Z,3.03
2023-04-20T12:25:08.004Z,2.23
2023-04-20T12:27:34.485Z,2.80
2023-04-20T12:30:01.012Z,2.70
2023-04-20T12:32:27.540Z,2.80
2023-04-20T12:34:54.096Z,2.80
2023-04-20T12:37:20.812Z,2.73
2023-04-20T12:39:47.316Z,3.43
2023-04-20T12:42:13.850Z,3.00
2023-04-20T12:44:40.304Z,2.73
2023-04-20T12:47:06.940Z,3.03
2023-04-20T12:49:33.861Z,3.40
2023-04-20T12:52:00.515Z,3.70
2023-04-20T12:54:26.990Z,2.90
2023-04-20T12:56:53.440Z,3.27
2023-04-20T12:59:19.894Z,3.00
2023-04-20T13:01:46.434Z,3.50
2023-04-20T13:04:16.049Z,3.20
2023-04-20T13:06:43.546Z,3.57
2023-04-20T13:09:10.012Z,3.20
2023-04-20T13:11:36.547Z,3.10
2023-04-20T13:14:03.014Z,3.60
2023-04-20T13:16:29.634Z,3.50
2023-04-20T13:18:56.388Z,3.30
2023-04-20T13:21:22.907Z,3.50
2023-04-20T13:23:49.364Z,3.47
2023-04-20T13:26:15.883Z,3.60
2023-04-20T13:28:42.386Z,4.10
2023-04-20T13:31:08.970Z,4.37
2023-04-20T13:33:35.803Z,3.90
2023-04-20T13:36:02.395Z,3.60
2023-04-20T13:38:29.023Z,3.87
2023-04-20T13:40:55.658Z,4.80
2023-04-20T13:43:22.200Z,4.30
2023-04-20T13:45:48.797Z,4.23
2023-04-20T13:48:15.322Z,3.93
2023-04-20T13:50:42.012Z,4.13
2023-04-20T13:53:08.458Z,3.83
2023-04-20T13:55:35.035Z,3.50
2023-04-20T13:58:01.620Z,4.23
2023-04-20T14:00:28.207Z,4.10
2023-04-20T14:02:54.815Z,3.80
2023-04-20T14:05:21.427Z,4.00
2023-04-20T14:07:47.901Z,3.43
2023-04-20T14:10:14.392Z,3.63
2023-04-20T14:12:40.952Z,4.57
2023-04-20T14:15:07.872Z,4.27
2023-04-20T14:17:34.402Z,4.13
2023-04-20T14:20:02.001Z,3.90
2023-04-20T14:22:34.275Z,4.00
2023-04-20T14:25:00.740Z,4.70
2023-04-20T14:27:27.171Z,4.67
2023-04-20T14:29:53.648Z,4.00
2023-04-20T14:32:20.228Z,4.40
2023-04-20T14:34:46.773Z,3.70
2023-04-20T14:37:13.246Z,3.87
2023-04-20T14:39:39.911Z,4.20
2023-04-20T14:42:07.563Z,4.53
2023-04-20T14:44:34.035Z,4.43
2023-04-20T14:47:01.733Z,4.70
2023-04-20T14:49:28.609Z,4.87
2023-04-20T14:51:55.122Z,4.53
2023-04-20T14:54:21.541Z,4.43
2023-04-20T14:56:48.032Z,4.40
2023-04-20T14:59:14.743Z,4.87
2023-04-20T15:01:51.354Z,5.00
2023-04-20T15:04:25.819Z,4.27
2023-04-20T15:06:52.694Z,4.53
2023-04-20T15:09:19.139Z,4.50
2023-04-20T15:11:45.696Z,4.30
2023-04-20T15:14:12.161Z,4.53
2023-04-20T15:16:38.674Z,4.70
2023-04-20T15:19:05.094Z,4.07
2023-04-20T15:21:32.245Z,4.57
2023-04-20T15:23:58.845Z,5.27
2023-04-20T15:26:25.599Z,4.87
2023-04-20T15:28:52.049Z,4.30
2023-04-20T15:31:19.132Z,4.33
2023-04-20T15:33:47.932Z,3.90
2023-04-20T15:36:17.484Z,4.20
2023-04-20T15:38:43.906Z,4.30
2023-04-20T15:41:10.432Z,3.80
2023-04-20T15:43:36.945Z,4.60
2023-04-20T15:46:03.612Z,4.20
2023-04-20T15:48:30.280Z,4.97
2023-04-20T15:50:57.031Z,5.70
2023-04-20T15:53:24.310Z,6.23
2023-04-20T15:55:51.482Z,5.67
2023-04-20T15:58:18.151Z,5.53
2023-04-20T16:00:44.972Z,5.50
2023-04-20T16:03:11.711Z,5.03
2023-04-20T16:05:38.266Z,4.60
2023-04-20T16:08:05.557Z,5.10
2023-04-20T16:10:32.191Z,5.37
2023-04-20T16:12:58.680Z,4.70
2023-04-20T16:15:25.331Z,5.13
2023-04-20T16:17:51.857Z,5.30
2023-04-20T16:20:18.403Z,5.90
2023-04-20T16:22:44.886Z,5.60
2023-04-20T16:25:14.244Z,5.30
2023-04-20T16:27:40.695Z,4.93
2023-04-20T16:30:08.417Z,4.90
2023-04-20T16:32:34.988Z,4.10
2023-04-20T16:35:01.696Z,4.80
2023-04-20T16:37:30.344Z,5.13
2023-04-20T16:39:56.749Z,5.60
2023-04-20T16:42:23.160Z,5.00
2023-04-20T16:44:49.631Z,5.17
2023-04-20T16:47:16.070Z,5.20
2023-04-20T16:49:42.697Z,4.53
2023-04-20T16:52:10.481Z,4.60
2023-04-20T16:54:37.266Z,4.63
2023-04-20T16:57:03.698Z,5.07
2023-04-20T16:59:30.219Z,5.30
2023-04-20T17:01:56.697Z,4.60
2023-04-20T17:04:23.651Z,4.80
2023-04-20T17:06:51.630Z,4.40
2023-04-20T17:09:18.461Z,5.77
2023-04-20T17:11:45.391Z,5.00
2023-04-20T17:14:12.093Z,5.13
2023-04-20T17:16:41.420Z,6.63
2023-04-20T17:19:07.933Z,5.03
2023-04-20T17:21:39.011Z,4.93
2023-04-20T17:24:05.920Z,4.53
2023-04-20T17:26:32.559Z,4.60
2023-04-20T17:28:59.354Z,4.80
2023-04-20T17:31:25.884Z,4.30
2023-04-20T17:33:52.544Z,4.10
2023-04-20T17:36:19.055Z,4.27
2023-04-20T17:38:45.600Z,4.27
2023-04-20T17:41:12.135Z,4.37
2023-04-20T17:43:40.434Z,4.63
2023-04-20T17:46:07.812Z,4.37
2023-04-20T17:48:34.354Z,4.70
2023-04-20T17:51:00.982Z,5.07
2023-04-20T17:53:27.681Z,4.50
2023-04-20T17:55:54.166Z,4.40
2023-04-20T17:58:20.618Z,4.47
2023-04-20T18:00:47.704Z,5.03
2023-04-20T18:03:14.888Z,4.70
2023-04-20T18:05:41.949Z,5.00
2023-04-20T18:08:10.084Z,4.80
2023-04-20T18:10:37.436Z,4.80
2023-04-20T18:13:03.985Z,4.30
2023-04-20T18:15:30.509Z,4.67
2023-04-20T18:17:57.051Z,4.27
2023-04-20T18:20:23.867Z,4.70
2023-04-20T18:22:50.552Z,5.27
2023-04-20T18:25:18.898Z,4.93
2023-04-20T18:27:45.921Z,4.60
2023-04-20T18:30:13.807Z,5.13
2023-04-20T18:32:40.863Z,5.00
2023-04-20T18:35:08.452Z,5.40
2023-04-20T18:37:35.024Z,5.20
2023-04-20T18:40:01.474Z,5.13
2023-04-20T18:42:28.022Z,5.40
2023-04-20T18:44:55.898Z,4.93
2023-04-20T18:47:24.533Z,5.43
2023-04-20T18:49:53.142Z,5.40
2023-04-20T18:52:20.077Z,5.40
2023-04-20T18:54:47.515Z,6.10
2023-04-20T18:57:14.489Z,4.93
2023-04-20T18:59:40.978Z,5.17
2023-04-20T19:02:07.579Z,5.47
2023-04-20T19:04:36.208Z,4.80
2023-04-20T19:07:02.733Z,5.27
2023-04-20T19:09:29.197Z,5.13
2023-04-20T19:11:55.679Z,5.70
2023-04-20T19:14:22.429Z,5.40
2023-04-20T19:16:48.917Z,5.30
2023-04-20T19:19:15.469Z,5.60
2023-04-20T19:21:41.940Z,5.43
2023-04-20T19:24:08.455Z,5.10
2023-04-20T19:26:34.905Z,5.43
2023-04-20T19:29:01.460Z,5.43
2023-04-20T19:31:32.180Z,5.77
2023-04-20T19:33:58.813Z,4.93
2023-04-20T19:36:25.327Z,5.80
2023-04-20T19:38:51.750Z,5.50
2023-04-20T19:41:18.191Z,6.43
2023-04-20T19:43:44.580Z,6.27
2023-04-20T19:46:11.665Z,6.20
2023-04-20T19:48:38.214Z,6.30
2023-04-20T19:51:06.160Z,6.07
2023-04-20T19:53:33.523Z,6.50
2023-04-20T19:56:00.889Z,5.50
2023-04-20T19:58:28.008Z,5.70
2023-04-20T20:00:54.563Z,7.13
2023-04-20T20:03:21.692Z,7.10
2023-04-20T20:05:49.304Z,7.13
2023-04-20T20:08:20.437Z,7.00
2023-04-20T20:10:57.157Z,7.33
2023-04-20T20:13:23.691Z,7.10
2023-04-20T20:15:52.217Z,7.47
2023-04-20T20:18:22.381Z,6.50
2023-04-20T20:20:51.325Z,7.37
2023-04-20T20:23:23.477Z,7.90
2023-04-20T20:25:50.392Z,8.20
2023-04-20T20:28:17.563Z,8.50
2023-04-20T20:30:45.634Z,8.43
2023-04-20T20:33:15.918Z,8.13
2023-04-20T20:35:42.793Z,8.17
2023-04-20T20:38:11.185Z,9.20
2023-04-20T20:40:39.677Z,9.10
2023-04-20T20:43:06.144Z,9.07
2023-04-20T20:45:33.789Z,9.90
2023-04-20T20:48:02.055Z,10.33
2023-04-20T20:50:29.508Z,10.87
2023-04-20T20:52:58.920Z,10.20
2023-04-20T20:55:25.750Z,11.10
2023-04-20T20:57:55.228Z,11.50
2023-04-20T21:00:21.677Z,11.00
2023-04-20T21:02:48.247Z,12.03
2023-04-20T21:05:14.937Z,12.40
2023-04-20T21:07:41.488Z,13.03
2023-04-20T21:10:12.161Z,11.63
2023-04-20T21:12:44.634Z,12.70
2023-04-20T21:15:15.209Z,11.80
2023-04-20T21:17:43.624Z,13.10
2023-04-20T21:20:11.899Z,13.00
2023-04-20T21:22:38.872Z,12.70
2023-04-20T21:25:09.139Z,14.20
2023-04-20T21:27:35.651Z,13.30
2023-04-20T21:30:02.360Z,14.50
2023-04-20T21:32:32.060Z,13.70
2023-04-20T21:34:58.506Z,14.47
2023-04-20T21:37:25.006Z,13.43
2023-04-20T21:39:55.828Z,14.23
2023-04-20T21:42:26.959Z,14.67
2023-04-20T21:45:19.669Z,14.13
2023-04-20T21:47:46.592Z,14.67
2023-04-20T21:50:13.350Z,15.23
2023-04-20T21:52:48.729Z,14.50
2023-04-20T21:55:16.680Z,15.90
2023-04-20T21:57:43.156Z,16.70
2023-04-20T22:00:10.297Z,17.10
2023-04-20T22:02:36.865Z,16.77
2023-04-20T22:05:04.361Z,16.40
2023-04-20T22:07:32.627Z,17.90
2023-04-20T22:10:01.017Z,15.10
2023-04-20T22:12:38.449Z,17.57
2023-04-20T22:15:08.808Z,16.47
2023-04-20T22:17:35.694Z,15.83
2023-04-20T22:20:04.023Z,16.63
2023-04-20T22:22:30.412Z,17.57
2023-04-20T22:24:56.813Z,17.23
2023-04-20T22:27:23.217Z,17.23
2023-04-20T22:29:49.673Z,17.47
2023-04-20T22:32:16.112Z,17.00
2023-04-20T22:34:42.553Z,16.73
2023-04-20T22:37:09.018Z,17.77
2023-04-20T22:39:35.615Z,16.43
2023-04-20T22:42:02.227Z,17.73
2023-04-20T22:44:28.645Z,18.10
2023-04-20T22:46:55.142Z,18.17
2023-04-20T22:49:23.134Z,16.90
2023-04-20T22:51:49.808Z,16.80
2023-04-20T22:54:16.235Z,18.23
2023-04-20T22:56:42.915Z,17.93
2023-04-20T22:59:09.386Z,17.33
2023-04-20T23:01:35.857Z,18.00
2023-04-20T23:04:02.484Z,18.13
2023-04-20T23:06:29.652Z,19.30
2023-04-20T23:08:59.137Z,19.60
2023-04-20T23:11:29.039Z,18.47
2023-04-20T23:13:55.864Z,18.57
2023-04-20T23:16:23.208Z,19.00
2023-04-20T23:18:49.725Z,20.50
2023-04-20T23:21:16.146Z,19.63
2023-04-20T23:23:42.622Z,19.33
2023-04-20T23:26:09.027Z,19.67
2023-04-20T23:28:35.697Z,20.30
2023-04-20T23:31:02.241Z,20.50
2023-04-20T23:33:29.021Z,19.63
2023-04-20T23:35:55.540Z,19.67
2023-04-20T23:38:22.046Z,19.80
2023-04-20T23:40:48.572Z,19.53
2023-04-20T23:43:15.044Z,20.30
2023-04-20T23:45:41.660Z,21.70
2023-04-20T23:48:08.211Z,20.83
2023-04-20T23:50:36.901Z,20.50
2023-04-20T23:53:05.573Z,22.17
2023-04-20T23:55:32.616Z,21.20
2023-04-20T23:57:59.049Z,21.63
